sensor_id;sensor_type;location;lat;lon;timestamp;pressure;altitude;pressure_sealevel;temperature
24714;BMP280;12820;51.580;5.010;2022-10-16T00:00:46;100981.03;;;15.07
24714;BMP280;12820;51.580;5.010;2022-10-16T00:05:58;100979.47;;;15.03
24714;BMP280;12820;51.580;5.010;2022-10-16T00:11:29;100982.94;;;14.99
24714;BMP280;12820;51.580;5.010;2022-10-16T00:16:31;100978.00;;;14.96
24714;BMP280;12820;51.580;5.010;2022-10-16T00:21:33;100980.50;;;14.96
24714;BMP280;12820;51.580;5.010;2022-10-16T00:26:39;100980.47;;;14.98
24714;BMP280;12820;51.580;5.010;2022-10-16T00:31:41;100975.34;;;14.99
24714;BMP280;12820;51.580;5.010;2022-10-16T00:36:43;100975.31;;;15.01
24714;BMP280;12820;51.580;5.010;2022-10-16T00:41:45;100968.53;;;15.03
24714;BMP280;12820;51.580;5.010;2022-10-16T00:46:48;100974.31;;;15.06
24714;BMP280;12820;51.580;5.010;2022-10-16T00:51:53;100982.59;;;15.11
24714;BMP280;12820;51.580;5.010;2022-10-16T00:56:58;100990.06;;;15.15
24714;BMP280;12820;51.580;5.010;2022-10-16T01:02:03;100987.38;;;15.20
24714;BMP280;12820;51.580;5.010;2022-10-16T01:07:30;100988.94;;;15.24
24714;BMP280;12820;51.580;5.010;2022-10-16T01:12:42;100987.16;;;15.27
24714;BMP280;12820;51.580;5.010;2022-10-16T01:17:53;100992.94;;;15.32
24714;BMP280;12820;51.580;5.010;2022-10-16T01:23:05;100979.31;;;15.34
24714;BMP280;12820;51.580;5.010;2022-10-16T01:28:11;100962.31;;;15.38
24714;BMP280;12820;51.580;5.010;2022-10-16T01:33:16;100969.88;;;15.39
24714;BMP280;12820;51.580;5.010;2022-10-16T01:38:34;100986.78;;;15.39
24714;BMP280;12820;51.580;5.010;2022-10-16T01:43:41;100977.59;;;15.36
24714;BMP280;12820;51.580;5.010;2022-10-16T01:48:45;100969.19;;;15.34
24714;BMP280;12820;51.580;5.010;2022-10-16T01:53:50;100976.91;;;15.31
24714;BMP280;12820;51.580;5.010;2022-10-16T01:59:14;100982.00;;;15.30
24714;BMP280;12820;51.580;5.010;2022-10-16T02:04:36;100982.16;;;15.26
24714;BMP280;12820;51.580;5.010;2022-10-16T02:09:39;100990.72;;;15.22
24714;BMP280;12820;51.580;5.010;2022-10-16T02:14:42;100989.09;;;15.19
24714;BMP280;12820;51.580;5.010;2022-10-16T02:19:46;100984.97;;;15.17
24714;BMP280;12820;51.580;5.010;2022-10-16T02:24:57;100985.81;;;15.16
24714;BMP280;12820;51.580;5.010;2022-10-16T02:30:08;100995.16;;;15.14
24714;BMP280;12820;51.580;5.010;2022-10-16T02:35:15;100981.78;;;15.11
24714;BMP280;12820;51.580;5.010;2022-10-16T02:40:18;100990.31;;;15.08
24714;BMP280;12820;51.580;5.010;2022-10-16T02:45:25;100986.16;;;15.04
24714;BMP280;12820;51.580;5.010;2022-10-16T02:50:27;100976.97;;;15.02
24714;BMP280;12820;51.580;5.010;2022-10-16T02:55:29;100975.41;;;14.98
24714;BMP280;12820;51.580;5.010;2022-10-16T03:00:31;100982.22;;;14.96
24714;BMP280;12820;51.580;5.010;2022-10-16T03:05:33;100983.16;;;14.93
24714;BMP280;12820;51.580;5.010;2022-10-16T03:10:35;100973.94;;;14.90
24714;BMP280;12820;51.580;5.010;2022-10-16T03:15:37;100991.75;;;14.87
24714;BMP280;12820;51.580;5.010;2022-10-16T03:20:39;101005.25;;;14.86
24714;BMP280;12820;51.580;5.010;2022-10-16T03:25:41;101023.94;;;14.82
24714;BMP280;12820;51.580;5.010;2022-10-16T03:30:43;101020.63;;;14.80
24714;BMP280;12820;51.580;5.010;2022-10-16T03:35:51;101015.66;;;14.77
24714;BMP280;12820;51.580;5.010;2022-10-16T03:40:54;101024.16;;;14.75
24714;BMP280;12820;51.580;5.010;2022-10-16T03:45:56;101036.00;;;14.74
24714;BMP280;12820;51.580;5.010;2022-10-16T03:50:58;101031.81;;;14.72
24714;BMP280;12820;51.580;5.010;2022-10-16T03:56:00;101041.09;;;14.71
24714;BMP280;12820;51.580;5.010;2022-10-16T04:01:02;101037.81;;;14.69
24714;BMP280;12820;51.580;5.010;2022-10-16T04:06:04;101037.81;;;14.69
24714;BMP280;12820;51.580;5.010;2022-10-16T04:11:06;101046.25;;;14.68
24714;BMP280;12820;51.580;5.010;2022-10-16T04:16:08;101054.72;;;14.67
24714;BMP280;12820;51.580;5.010;2022-10-16T04:21:10;101049.66;;;14.67
24714;BMP280;12820;51.580;5.010;2022-10-16T04:26:12;101049.75;;;14.64
24714;BMP280;12820;51.580;5.010;2022-10-16T04:31:14;101054.81;;;14.64
24714;BMP280;12820;51.580;5.010;2022-10-16T04:36:16;101073.47;;;14.60
24714;BMP280;12820;51.580;5.010;2022-10-16T04:41:20;101077.72;;;14.58
24714;BMP280;12820;51.580;5.010;2022-10-16T04:46:21;101087.03;;;14.57
24714;BMP280;12820;51.580;5.010;2022-10-16T04:51:23;101093.88;;;14.55
24714;BMP280;12820;51.580;5.010;2022-10-16T04:56:27;101080.41;;;14.53
24714;BMP280;12820;51.580;5.010;2022-10-16T05:01:29;101086.41;;;14.50
24714;BMP280;12820;51.580;5.010;2022-10-16T05:06:31;101086.53;;;14.46
24714;BMP280;12820;51.580;5.010;2022-10-16T05:11:33;101098.34;;;14.44
24714;BMP280;12820;51.580;5.010;2022-10-16T05:16:36;101114.47;;;14.41
24714;BMP280;12820;51.580;5.010;2022-10-16T05:21:38;101122.94;;;14.39
24714;BMP280;12820;51.580;5.010;2022-10-16T05:26:40;101123.78;;;14.38
24714;BMP280;12820;51.580;5.010;2022-10-16T05:31:42;101135.59;;;14.38
24714;BMP280;12820;51.580;5.010;2022-10-16T05:36:44;101139.88;;;14.36
24714;BMP280;12820;51.580;5.010;2022-10-16T05:41:49;101153.38;;;14.36
24714;BMP280;12820;51.580;5.010;2022-10-16T05:46:51;101165.19;;;14.34
24714;BMP280;12820;51.580;5.010;2022-10-16T05:51:53;101169.47;;;14.32
24714;BMP280;12820;51.580;5.010;2022-10-16T05:56:55;101181.28;;;14.32
24714;BMP280;12820;51.580;5.010;2022-10-16T06:01:57;101191.44;;;14.29
24714;BMP280;12820;51.580;5.010;2022-10-16T06:06:59;101199.97;;;14.26
24714;BMP280;12820;51.580;5.010;2022-10-16T06:12:02;101202.53;;;14.23
24714;BMP280;12820;51.580;5.010;2022-10-16T06:17:04;101212.72;;;14.22
24714;BMP280;12820;51.580;5.010;2022-10-16T06:22:07;101218.59;;;14.22
24714;BMP280;12820;51.580;5.010;2022-10-16T06:27:09;101231.25;;;14.22
24714;BMP280;12820;51.580;5.010;2022-10-16T06:32:11;101229.50;;;14.24
24714;BMP280;12820;51.580;5.010;2022-10-16T06:37:14;101234.50;;;14.27
24714;BMP280;12820;51.580;5.010;2022-10-16T06:42:16;101246.94;;;14.35
24714;BMP280;12820;51.580;5.010;2022-10-16T06:47:19;101244.28;;;14.40
24714;BMP280;12820;51.580;5.010;2022-10-16T06:52:21;101259.28;;;14.48
24714;BMP280;12820;51.580;5.010;2022-10-16T06:57:23;101264.19;;;14.54
24714;BMP280;12820;51.580;5.010;2022-10-16T07:02:25;101273.38;;;14.57
24714;BMP280;12820;51.580;5.010;2022-10-16T07:07:28;101294.34;;;14.62
24714;BMP280;12820;51.580;5.010;2022-10-16T07:12:30;101295.00;;;14.70
24714;BMP280;12820;51.580;5.010;2022-10-16T07:17:33;101303.16;;;14.81
24714;BMP280;12820;51.580;5.010;2022-10-16T07:22:36;101313.06;;;14.91
24714;BMP280;12820;51.580;5.010;2022-10-16T07:27:38;101318.59;;;15.06
24714;BMP280;12820;51.580;5.010;2022-10-16T07:32:40;101323.56;;;15.11
24714;BMP280;12820;51.580;5.010;2022-10-16T07:37:46;101323.53;;;15.12
24714;BMP280;12820;51.580;5.010;2022-10-16T07:42:48;101338.66;;;15.13
24714;BMP280;12820;51.580;5.010;2022-10-16T07:47:50;101347.91;;;15.16
24714;BMP280;12820;51.580;5.010;2022-10-16T07:52:52;101348.66;;;15.18
24714;BMP280;12820;51.580;5.010;2022-10-16T07:57:54;101358.75;;;15.21
24714;BMP280;12820;51.580;5.010;2022-10-16T08:02:57;101382.25;;;15.26
24714;BMP280;12820;51.580;5.010;2022-10-16T08:08:02;101397.31;;;15.31
24714;BMP280;12820;51.580;5.010;2022-10-16T08:13:04;101398.91;;;15.35
24714;BMP280;12820;51.580;5.010;2022-10-16T08:18:06;101407.22;;;15.40
24714;BMP280;12820;51.580;5.010;2022-10-16T08:23:09;101404.56;;;15.45
24714;BMP280;12820;51.580;5.010;2022-10-16T08:28:13;101412.88;;;15.49
24714;BMP280;12820;51.580;5.010;2022-10-16T08:33:16;101417.81;;;15.55
24714;BMP280;12820;51.580;5.010;2022-10-16T08:38:18;101436.16;;;15.64
24714;BMP280;12820;51.580;5.010;2022-10-16T08:48:48;101434.09;;;15.78
24714;BMP280;12820;51.580;5.010;2022-10-16T08:53:54;101444.00;;;15.87
24714;BMP280;12820;51.580;5.010;2022-10-16T08:58:58;101453.09;;;15.94
24714;BMP280;12820;51.580;5.010;2022-10-16T09:04:30;101454.63;;;16.02
24714;BMP280;12820;51.580;5.010;2022-10-16T09:09:48;101453.50;;;16.12
24714;BMP280;12820;51.580;5.010;2022-10-16T09:20:18;101451.22;;;16.33
24714;BMP280;12820;51.580;5.010;2022-10-16T09:25:21;101460.06;;;16.48
24714;BMP280;12820;51.580;5.010;2022-10-16T09:30:27;101469.91;;;16.60
24714;BMP280;12820;51.580;5.010;2022-10-16T09:35:48;101472.09;;;16.70
24714;BMP280;12820;51.580;5.010;2022-10-16T09:40:52;101470.97;;;16.80
24714;BMP280;12820;51.580;5.010;2022-10-16T09:46:06;101477.50;;;16.88
24714;BMP280;12820;51.580;5.010;2022-10-16T09:51:18;101480.56;;;16.99
24714;BMP280;12820;51.580;5.010;2022-10-16T09:56:24;101488.81;;;17.07
24714;BMP280;12820;51.580;5.010;2022-10-16T10:01:46;101484.19;;;17.19
24714;BMP280;12820;51.580;5.010;2022-10-16T10:06:50;101479.59;;;17.31
24714;BMP280;12820;51.580;5.010;2022-10-16T10:11:53;101493.44;;;17.46
24714;BMP280;12820;51.580;5.010;2022-10-16T10:22:21;101501.13;;;18.21
24714;BMP280;12820;51.580;5.010;2022-10-16T10:27:33;101506.75;;;18.52
24714;BMP280;12820;51.580;5.010;2022-10-16T10:38:02;101519.69;;;18.70
24714;BMP280;12820;51.580;5.010;2022-10-16T10:48:54;101517.09;;;18.72
24714;BMP280;12820;51.580;5.010;2022-10-16T11:10:26;101512.72;;;24.14
24714;BMP280;12820;51.580;5.010;2022-10-16T11:15:32;101517.22;;;24.11
24714;BMP280;12820;51.580;5.010;2022-10-16T11:20:42;101516.63;;;25.03
24714;BMP280;12820;51.580;5.010;2022-10-16T11:25:45;101512.00;;;24.53
24714;BMP280;12820;51.580;5.010;2022-10-16T11:30:58;101508.00;;;26.43
24714;BMP280;12820;51.580;5.010;2022-10-16T11:36:26;101508.53;;;27.88
24714;BMP280;12820;51.580;5.010;2022-10-16T11:42:03;101509.47;;;29.89
24714;BMP280;12820;51.580;5.010;2022-10-16T11:47:12;101514.53;;;31.37
24714;BMP280;12820;51.580;5.010;2022-10-16T11:52:43;101503.88;;;32.13
24714;BMP280;12820;51.580;5.010;2022-10-16T11:57:52;101509.53;;;32.63
24714;BMP280;12820;51.580;5.010;2022-10-16T12:03:09;101501.41;;;32.12
24714;BMP280;12820;51.580;5.010;2022-10-16T12:08:15;101510.97;;;32.21
24714;BMP280;12820;51.580;5.010;2022-10-16T12:13:40;101510.06;;;33.19
24714;BMP280;12820;51.580;5.010;2022-10-16T12:18:46;101516.22;;;31.84
24714;BMP280;12820;51.580;5.010;2022-10-16T12:23:50;101506.19;;;30.47
24714;BMP280;12820;51.580;5.010;2022-10-16T12:28:53;101520.00;;;29.77
24714;BMP280;12820;51.580;5.010;2022-10-16T12:34:03;101511.72;;;29.11
24714;BMP280;12820;51.580;5.010;2022-10-16T12:39:05;101508.31;;;28.35
24714;BMP280;12820;51.580;5.010;2022-10-16T12:44:23;101520.63;;;27.88
24714;BMP280;12820;51.580;5.010;2022-10-16T12:49:36;101507.88;;;27.74
24714;BMP280;12820;51.580;5.010;2022-10-16T12:54:39;101495.19;;;29.23
24714;BMP280;12820;51.580;5.010;2022-10-16T13:05:22;101500.63;;;32.02
24714;BMP280;12820;51.580;5.010;2022-10-16T13:10:35;101499.53;;;33.11
24714;BMP280;12820;51.580;5.010;2022-10-16T13:16:02;101497.03;;;34.54
24714;BMP280;12820;51.580;5.010;2022-10-16T13:21:16;101497.59;;;34.73
24714;BMP280;12820;51.580;5.010;2022-10-16T13:31:49;101503.28;;;35.72
24714;BMP280;12820;51.580;5.010;2022-10-16T13:36:52;101502.25;;;35.35
24714;BMP280;12820;51.580;5.010;2022-10-16T13:42:25;101492.47;;;36.07
24714;BMP280;12820;51.580;5.010;2022-10-16T13:47:29;101482.47;;;36.33
24714;BMP280;12820;51.580;5.010;2022-10-16T13:52:32;101489.50;;;35.32
24714;BMP280;12820;51.580;5.010;2022-10-16T13:57:34;101488.25;;;34.05
24714;BMP280;12820;51.580;5.010;2022-10-16T14:02:38;101489.34;;;32.30
24714;BMP280;12820;51.580;5.010;2022-10-16T14:07:42;101492.97;;;31.82
24714;BMP280;12820;51.580;5.010;2022-10-16T14:12:44;101489.06;;;31.22
24714;BMP280;12820;51.580;5.010;2022-10-16T14:17:49;101492.19;;;29.48
24714;BMP280;12820;51.580;5.010;2022-10-16T14:23:04;101502.19;;;28.26
24714;BMP280;12820;51.580;5.010;2022-10-16T14:33:41;101495.66;;;26.95
24714;BMP280;12820;51.580;5.010;2022-10-16T14:38:57;101495.63;;;26.48
24714;BMP280;12820;51.580;5.010;2022-10-16T14:44:03;101494.56;;;26.02
24714;BMP280;12820;51.580;5.010;2022-10-16T14:54:12;101497.75;;;25.16
24714;BMP280;12820;51.580;5.010;2022-10-16T15:04:35;101484.56;;;24.40
24714;BMP280;12820;51.580;5.010;2022-10-16T15:09:37;101488.94;;;24.11
24714;BMP280;12820;51.580;5.010;2022-10-16T15:14:39;101488.59;;;23.88
24714;BMP280;12820;51.580;5.010;2022-10-16T15:19:41;101501.81;;;23.67
24714;BMP280;12820;51.580;5.010;2022-10-16T15:24:43;101499.91;;;23.42
24714;BMP280;12820;51.580;5.010;2022-10-16T15:29:45;101496.22;;;23.15
24714;BMP280;12820;51.580;5.010;2022-10-16T15:34:47;101506.91;;;22.93
24714;BMP280;12820;51.580;5.010;2022-10-16T15:39:50;101496.34;;;22.67
24714;BMP280;12820;51.580;5.010;2022-10-16T15:44:52;101506.03;;;22.46
24714;BMP280;12820;51.580;5.010;2022-10-16T15:49:54;101511.41;;;22.25
24714;BMP280;12820;51.580;5.010;2022-10-16T15:54:56;101503.91;;;22.06
24714;BMP280;12820;51.580;5.010;2022-10-16T15:59:58;101486.06;;;21.88
24714;BMP280;12820;51.580;5.010;2022-10-16T16:05:00;101477.53;;;21.71
24714;BMP280;12820;51.580;5.010;2022-10-16T16:10:05;101503.94;;;21.54
24714;BMP280;12820;51.580;5.010;2022-10-16T16:15:08;101504.75;;;21.38
24714;BMP280;12820;51.580;5.010;2022-10-16T16:20:11;101502.91;;;21.24
24714;BMP280;12820;51.580;5.010;2022-10-16T16:25:13;101496.03;;;21.06
24714;BMP280;12820;51.580;5.010;2022-10-16T16:30:15;101502.75;;;20.91
24714;BMP280;12820;51.580;5.010;2022-10-16T16:35:21;101493.22;;;20.76
24714;BMP280;12820;51.580;5.010;2022-10-16T16:40:24;101499.84;;;20.62
24714;BMP280;12820;51.580;5.010;2022-10-16T16:45:26;101502.16;;;20.48
24714;BMP280;12820;51.580;5.010;2022-10-16T16:50:29;101512.06;;;20.36
24714;BMP280;12820;51.580;5.010;2022-10-16T16:55:32;101527.09;;;20.23
24714;BMP280;12820;51.580;5.010;2022-10-16T17:00:34;101533.44;;;20.14
24714;BMP280;12820;51.580;5.010;2022-10-16T17:05:36;101519.44;;;20.03
24714;BMP280;12820;51.580;5.010;2022-10-16T17:10:44;101518.25;;;19.92
24714;BMP280;12820;51.580;5.010;2022-10-16T17:15:48;101530.59;;;19.81
24714;BMP280;12820;51.580;5.010;2022-10-16T17:20:50;101526.81;;;19.70
24714;BMP280;12820;51.580;5.010;2022-10-16T17:25:53;101536.53;;;19.61
24714;BMP280;12820;51.580;5.010;2022-10-16T17:30:55;101532.63;;;19.53
24714;BMP280;12820;51.580;5.010;2022-10-16T17:35:57;101526.19;;;19.43
24714;BMP280;12820;51.580;5.010;2022-10-16T17:41:12;101526.56;;;19.34
24714;BMP280;12820;51.580;5.010;2022-10-16T17:46:18;101543.84;;;19.26
24714;BMP280;12820;51.580;5.010;2022-10-16T17:51:26;101547.53;;;19.20
24714;BMP280;12820;51.580;5.010;2022-10-16T17:56:28;101561.38;;;19.13
24714;BMP280;12820;51.580;5.010;2022-10-16T18:01:33;101583.66;;;19.08
24714;BMP280;12820;51.580;5.010;2022-10-16T18:06:38;101608.59;;;19.00
24714;BMP280;12820;51.580;5.010;2022-10-16T18:11:40;101624.88;;;18.96
24714;BMP280;12820;51.580;5.010;2022-10-16T18:16:42;101625.91;;;18.91
24714;BMP280;12820;51.580;5.010;2022-10-16T18:21:45;101623.41;;;18.89
24714;BMP280;12820;51.580;5.010;2022-10-16T18:26:48;101613.34;;;18.86
24714;BMP280;12820;51.580;5.010;2022-10-16T18:31:51;101602.41;;;18.83
24714;BMP280;12820;51.580;5.010;2022-10-16T18:36:53;101598.31;;;18.79
24714;BMP280;12820;51.580;5.010;2022-10-16T18:41:56;101600.97;;;18.76
24714;BMP280;12820;51.580;5.010;2022-10-16T18:47:00;101612.16;;;18.72
24714;BMP280;12820;51.580;5.010;2022-10-16T18:52:03;101610.66;;;18.66
24714;BMP280;12820;51.580;5.010;2022-10-16T18:57:05;101611.66;;;18.62
24714;BMP280;12820;51.580;5.010;2022-10-16T19:02:08;101612.69;;;18.56
24714;BMP280;12820;51.580;5.010;2022-10-16T19:07:10;101621.31;;;18.52
24714;BMP280;12820;51.580;5.010;2022-10-16T19:12:12;101618.09;;;18.48
24714;BMP280;12820;51.580;5.010;2022-10-16T19:17:14;101624.19;;;18.44
24714;BMP280;12820;51.580;5.010;2022-10-16T19:22:16;101620.94;;;18.39
24714;BMP280;12820;51.580;5.010;2022-10-16T19:27:29;101631.28;;;18.34
24714;BMP280;12820;51.580;5.010;2022-10-16T19:32:31;101633.09;;;18.31
24714;BMP280;12820;51.580;5.010;2022-10-16T19:37:33;101640.00;;;18.28
24714;BMP280;12820;51.580;5.010;2022-10-16T19:42:36;101628.25;;;18.24
24714;BMP280;12820;51.580;5.010;2022-10-16T19:47:44;101631.78;;;18.20
24714;BMP280;12820;51.580;5.010;2022-10-16T19:52:46;101622.53;;;18.17
24714;BMP280;12820;51.580;5.010;2022-10-16T19:57:48;101600.59;;;18.14
24714;BMP280;12820;51.580;5.010;2022-10-16T20:02:50;101596.47;;;18.11
24714;BMP280;12820;51.580;5.010;2022-10-16T20:07:52;101605.88;;;18.08
24714;BMP280;12820;51.580;5.010;2022-10-16T20:12:54;101605.16;;;18.04
24714;BMP280;12820;51.580;5.010;2022-10-16T20:17:56;101610.28;;;18.03
24714;BMP280;12820;51.580;5.010;2022-10-16T20:22:59;101604.44;;;18.01
24714;BMP280;12820;51.580;5.010;2022-10-16T20:28:01;101600.25;;;17.98
24714;BMP280;12820;51.580;5.010;2022-10-16T20:33:03;101607.13;;;17.97
24714;BMP280;12820;51.580;5.010;2022-10-16T20:38:06;101606.28;;;17.96
24714;BMP280;12820;51.580;5.010;2022-10-16T20:43:16;101599.53;;;17.95
24714;BMP280;12820;51.580;5.010;2022-10-16T20:48:19;101594.47;;;17.94
24714;BMP280;12820;51.580;5.010;2022-10-16T20:53:21;101587.78;;;17.91
24714;BMP280;12820;51.580;5.010;2022-10-16T20:58:23;101606.47;;;17.90
24714;BMP280;12820;51.580;5.010;2022-10-16T21:03:25;101597.25;;;17.88
24714;BMP280;12820;51.580;5.010;2022-10-16T21:08:27;101597.25;;;17.88
24714;BMP280;12820;51.580;5.010;2022-10-16T21:13:29;101598.16;;;17.85
24714;BMP280;12820;51.580;5.010;2022-10-16T21:18:32;101599.91;;;17.83
24714;BMP280;12820;51.580;5.010;2022-10-16T21:23:34;101583.03;;;17.79
24714;BMP280;12820;51.580;5.010;2022-10-16T21:28:36;101565.38;;;17.75
24714;BMP280;12820;51.580;5.010;2022-10-16T21:33:38;101570.59;;;17.72
24714;BMP280;12820;51.580;5.010;2022-10-16T21:38:40;101569.06;;;17.67
24714;BMP280;12820;51.580;5.010;2022-10-16T21:43:43;101570.13;;;17.60
24714;BMP280;12820;51.580;5.010;2022-10-16T21:48:45;101572.91;;;17.53
24714;BMP280;12820;51.580;5.010;2022-10-16T21:53:47;101569.69;;;17.46
24714;BMP280;12820;51.580;5.010;2022-10-16T21:58:50;101553.03;;;17.38
24714;BMP280;12820;51.580;5.010;2022-10-16T22:03:52;101565.13;;;17.30
24714;BMP280;12820;51.580;5.010;2022-10-16T22:08:57;101562.81;;;17.23
24714;BMP280;12820;51.580;5.010;2022-10-16T22:14:03;101568.97;;;17.16
24714;BMP280;12820;51.580;5.010;2022-10-16T22:19:06;101577.63;;;17.09
24714;BMP280;12820;51.580;5.010;2022-10-16T22:24:09;101560.00;;;17.04
24714;BMP280;12820;51.580;5.010;2022-10-16T22:29:13;101567.75;;;16.99
24714;BMP280;12820;51.580;5.010;2022-10-16T22:34:15;101573.84;;;16.94
24714;BMP280;12820;51.580;5.010;2022-10-16T22:39:17;101570.63;;;16.88
24714;BMP280;12820;51.580;5.010;2022-10-16T22:44:19;101573.31;;;16.82
24714;BMP280;12820;51.580;5.010;2022-10-16T22:49:22;101568.38;;;16.77
24714;BMP280;12820;51.580;5.010;2022-10-16T22:54:24;101552.44;;;16.72
24714;BMP280;12820;51.580;5.010;2022-10-16T22:59:26;101561.84;;;16.69
24714;BMP280;12820;51.580;5.010;2022-10-16T23:04:30;101556.91;;;16.65
24714;BMP280;12820;51.580;5.010;2022-10-16T23:09:32;101539.22;;;16.60
24714;BMP280;12820;51.580;5.010;2022-10-16T23:14:34;101546.06;;;16.58
24714;BMP280;12820;51.580;5.010;2022-10-16T23:19:36;101535.94;;;16.57
24714;BMP280;12820;51.580;5.010;2022-10-16T23:24:38;101528.44;;;16.54
24714;BMP280;12820;51.580;5.010;2022-10-16T23:29:40;101535.28;;;16.51
24714;BMP280;12820;51.580;5.010;2022-10-16T23:34:42;101523.47;;;16.50
24714;BMP280;12820;51.580;5.010;2022-10-16T23:39:44;101519.28;;;16.49
24714;BMP280;12820;51.580;5.010;2022-10-16T23:44:46;101532.84;;;16.46
24714;BMP280;12820;51.580;5.010;2022-10-16T23:49:48;101528.72;;;16.44
24714;BMP280;12820;51.580;5.010;2022-10-16T23:54:50;101531.28;;;16.42
24714;BMP280;12820;51.580;5.010;2022-10-16T23:59:52;101534.69;;;16.41
